Time;durP1;ratioP1;P1;durP2;ratioP2;P2;SDS_P1;SDS_P2;PMS_P1;PMS_P2;Temp;Humidity;BMP_temperature;BMP_pressure;BME280_temperature;BME280_humidity;BME280_pressure;Samples;Min_cycle;Max_cycle;Signal;HPM_P1;HPM_P2
2021/01/12 00:03:04;;;;;;;53.17;31.08;;;-0.70;1.00;;;;;;5092357;28;20501;-89
2021/01/12 00:05:30;;;;;;;49.88;29.67;;;-0.60;1.00;;;;;;5091043;28;20034;-89
2021/01/12 00:07:55;;;;;;;50.28;29.38;;;-0.50;1.00;;;;;;5091965;28;20036;-89
2021/01/12 00:10:22;;;;;;;47.97;28.92;;;-0.60;1.00;;;;;;5091919;28;20089;-89
2021/01/12 00:12:48;;;;;;;49.70;29.25;;;-0.40;1.00;;;;;;5094702;28;20035;-89
2021/01/12 00:15:14;;;;;;;54.78;31.13;;;-0.30;1.00;;;;;;5097291;28;20024;-89
2021/01/12 00:17:40;;;;;;;52.60;32.03;;;-0.30;1.00;;;;;;5095393;28;20031;-89
2021/01/12 00:20:08;;;;;;;53.20;29.55;;;-0.30;1.00;;;;;;5094442;28;20024;-89
2021/01/12 00:22:34;;;;;;;47.47;28.27;;;-0.30;1.00;;;;;;5095568;28;20024;-89
2021/01/12 00:25:00;;;;;;;49.85;28.13;;;-0.30;1.00;;;;;;5095570;28;20031;-89
2021/01/12 00:27:25;;;;;;;48.85;28.58;;;0.00;1.00;;;;;;5095126;28;20030;-89
2021/01/12 00:29:51;;;;;;;46.97;27.63;;;-0.20;1.00;;;;;;5095929;28;20024;-89
2021/01/12 00:32:19;;;;;;;50.53;28.70;;;-0.20;1.00;;;;;;5095666;28;20020;-88
2021/01/12 00:34:45;;;;;;;51.38;29.88;;;-0.20;1.00;;;;;;5095855;28;20044;-89
2021/01/12 00:37:11;;;;;;;52.75;30.35;;;-0.20;1.00;;;;;;5096770;28;20054;-88
2021/01/12 00:39:37;;;;;;;49.42;30.45;;;-0.20;1.00;;;;;;5095271;28;20516;-88
2021/01/12 00:42:03;;;;;;;50.58;29.58;;;-0.30;1.00;;;;;;5095568;28;20028;-89
2021/01/12 00:44:29;;;;;;;53.95;30.77;;;-0.40;1.00;;;;;;5095612;28;20028;-89
2021/01/12 00:46:57;;;;;;;49.85;29.38;;;-0.30;1.00;;;;;;5095574;28;20020;-89
2021/01/12 00:49:24;;;;;;;51.83;29.85;;;-0.20;1.00;;;;;;5094900;28;20504;-89
2021/01/12 00:51:51;;;;;;;50.40;29.63;;;0.20;1.00;;;;;;5095405;28;20028;-89
2021/01/12 00:54:22;;;;;;;53.28;30.33;;;-0.30;1.00;;;;;;5095558;28;20022;-88
2021/01/12 00:56:49;;;;;;;49.55;30.23;;;-0.10;1.00;;;;;;5096215;28;20024;-89
2021/01/12 00:59:16;;;;;;;50.35;29.77;;;-0.20;1.00;;;;;;5095268;28;20489;-89
2021/01/12 01:01:43;;;;;;;49.05;29.55;;;0.20;1.00;;;;;;5095199;28;20024;-89
2021/01/12 01:04:09;;;;;;;51.33;29.60;;;-0.30;1.00;;;;;;5093914;28;20060;-89
2021/01/12 01:06:35;;;;;;;50.78;28.65;;;-0.30;1.00;;;;;;5079660;28;20515;-89
2021/01/12 01:09:01;;;;;;;52.38;29.65;;;0.00;1.00;;;;;;5094457;28;20028;-89
2021/01/12 01:11:26;;;;;;;53.40;29.77;;;-0.30;1.00;;;;;;5093689;28;20107;-89
2021/01/12 01:39:06;;;;;;;49.03;29.42;;;-0.60;1.00;;;;;;5115011;27;20347;-89
2021/01/12 01:41:32;;;;;;;47.10;28.35;;;-0.40;1.00;;;;;;5110019;28;20078;-89
2021/01/12 01:43:58;;;;;;;45.25;27.67;;;-0.30;1.00;;;;;;5120416;28;20465;-89
2021/01/12 01:46:24;;;;;;;48.03;27.63;;;-0.30;1.00;;;;;;5129188;28;20041;-89
2021/01/12 01:48:51;;;;;;;48.83;28.88;;;-0.30;1.00;;;;;;5130294;27;20545;-88
2021/01/12 01:51:17;;;;;;;47.63;28.08;;;-0.20;1.00;;;;;;5128487;28;20539;-89
2021/01/12 01:53:43;;;;;;;51.63;30.00;;;-0.10;1.00;;;;;;5130328;28;20111;-89
2021/01/12 01:56:09;;;;;;;51.45;30.23;;;-0.10;1.00;;;;;;5130225;28;20106;-89
2021/01/12 01:58:42;;;;;;;47.67;29.48;;;0.10;1.00;;;;;;5129738;28;20122;-89
2021/01/12 02:01:08;;;;;;;52.30;30.20;;;0.10;1.00;;;;;;5130018;28;20041;-89
2021/01/12 02:03:48;;;;;;;50.97;29.65;;;0.10;1.00;;;;;;5129670;27;20450;-89
2021/01/12 02:06:19;;;;;;;48.03;29.13;;;0.00;1.00;;;;;;5129162;28;20015;-89
2021/01/12 02:08:59;;;;;;;51.65;30.75;;;0.10;1.00;;;;;;5129576;28;20028;-88
2021/01/12 02:11:27;;;;;;;52.88;30.73;;;0.10;1.00;;;;;;5129737;28;20084;-89
2021/01/12 02:14:01;;;;;;;52.10;30.05;;;0.00;1.00;;;;;;5129481;28;20024;-89
2021/01/12 02:16:29;;;;;;;51.92;29.52;;;0.10;1.00;;;;;;5119122;28;20103;-88
2021/01/12 02:18:57;;;;;;;52.10;29.67;;;0.10;1.00;;;;;;5128929;28;20496;-89
2021/01/12 02:21:23;;;;;;;55.63;32.20;;;0.00;1.00;;;;;;5129118;28;20034;-89
2021/01/12 02:23:51;;;;;;;51.15;29.38;;;0.00;1.00;;;;;;5129325;28;20456;-89
2021/01/12 02:26:17;;;;;;;53.70;30.73;;;0.10;1.00;;;;;;5128954;27;22024;-89
2021/01/12 02:28:42;;;;;;;54.85;31.23;;;0.10;1.00;;;;;;5129376;27;20036;-89
2021/01/12 02:31:08;;;;;;;54.63;31.38;;;0.20;1.00;;;;;;5111494;27;20024;-89
2021/01/12 02:33:38;;;;;;;56.97;31.63;;;0.20;1.00;;;;;;5124076;28;20028;-89
2021/01/12 02:36:06;;;;;;;53.78;31.13;;;0.20;1.00;;;;;;5111928;27;20546;-89
2021/01/12 02:38:33;;;;;;;50.53;29.90;;;0.20;1.00;;;;;;5103656;28;20056;-89
2021/01/12 02:41:29;;;;;;;54.80;31.15;;;0.30;1.00;;;;;;5095866;28;20031;-88
2021/01/12 02:43:55;;;;;;;52.92;29.65;;;0.10;1.00;;;;;;5091495;28;20496;-88
2021/01/12 02:46:21;;;;;;;49.60;29.70;;;0.20;1.00;;;;;;5095125;28;20035;-89
2021/01/12 02:48:46;;;;;;;50.88;29.45;;;0.30;1.00;;;;;;5096178;28;20078;-89
2021/01/12 02:51:12;;;;;;;50.33;28.95;;;0.30;1.00;;;;;;5094935;28;20030;-89
2021/01/12 02:53:38;;;;;;;50.20;30.20;;;0.30;1.00;;;;;;5094899;28;20028;-89
2021/01/12 02:56:04;;;;;;;48.38;28.83;;;0.30;1.00;;;;;;5098962;28;20042;-89
2021/01/12 02:58:30;;;;;;;51.17;31.50;;;0.20;1.00;;;;;;5100733;28;20461;-89
2021/01/12 03:00:55;;;;;;;50.42;29.45;;;0.40;1.00;;;;;;5095062;28;20059;-89
2021/01/12 03:03:21;;;;;;;50.30;28.42;;;0.30;1.00;;;;;;5095132;28;20077;-89
2021/01/12 03:05:47;;;;;;;48.95;28.45;;;0.40;1.00;;;;;;5094915;28;20031;-89
2021/01/12 03:08:14;;;;;;;53.03;30.10;;;0.30;1.00;;;;;;5094679;28;20032;-89
2021/01/12 03:10:40;;;;;;;48.38;29.30;;;0.30;1.00;;;;;;5094193;28;20397;-89
2021/01/12 03:13:06;;;;;;;48.85;29.52;;;0.30;1.00;;;;;;5094605;28;20089;-89
2021/01/12 03:15:32;;;;;;;47.60;28.83;;;0.30;1.00;;;;;;5094546;28;20028;-89
2021/01/12 03:17:57;;;;;;;47.97;29.40;;;1.00;1.00;;;;;;5093849;28;20027;-88
2021/01/12 03:20:26;;;;;;;51.10;30.70;;;0.50;1.00;;;;;;5101300;28;20495;-89
2021/01/12 03:22:52;;;;;;;50.30;29.55;;;0.60;1.00;;;;;;5114321;28;20094;-89
2021/01/12 03:25:20;;;;;;;49.10;29.00;;;0.60;1.00;;;;;;5099580;28;20111;-88
2021/01/12 03:27:49;;;;;;;49.72;29.02;;;0.60;1.00;;;;;;5094438;28;20397;-89
2021/01/12 03:30:16;;;;;;;50.63;28.67;;;0.40;1.00;;;;;;5110746;28;20022;-89
2021/01/12 03:32:41;;;;;;;51.80;29.02;;;0.60;1.00;;;;;;5106991;28;20077;-89
2021/01/12 03:35:09;;;;;;;50.50;30.23;;;0.60;1.00;;;;;;5113240;28;20019;-89
2021/01/12 03:37:35;;;;;;;50.17;30.75;;;0.50;1.00;;;;;;5114465;28;20104;-89
2021/01/12 03:40:01;;;;;;;47.83;29.77;;;0.50;1.00;;;;;;5113608;28;20028;-89
2021/01/12 03:42:27;;;;;;;51.05;29.70;;;0.50;1.00;;;;;;5114501;28;20042;-89
2021/01/12 03:44:53;;;;;;;53.90;30.15;;;0.60;1.00;;;;;;5114431;28;20023;-89
2021/01/12 03:47:18;;;;;;;45.97;28.60;;;0.60;1.00;;;;;;5097090;28;20028;-89
2021/01/12 03:49:45;;;;;;;48.28;29.10;;;0.50;1.00;;;;;;5092869;28;20044;-89
2021/01/12 03:52:11;;;;;;;48.30;28.52;;;0.60;1.00;;;;;;5111994;28;20032;-89
2021/01/12 03:54:36;;;;;;;46.92;28.23;;;0.60;1.00;;;;;;5114098;28;20027;-89
2021/01/12 03:57:02;;;;;;;49.40;28.95;;;1.00;1.00;;;;;;5113007;28;20031;-88
2021/01/12 03:59:27;;;;;;;49.42;30.02;;;0.80;1.00;;;;;;5097571;28;20031;-89
2021/01/12 04:01:53;;;;;;;50.03;29.88;;;0.70;1.00;;;;;;5093867;28;20114;-89
2021/01/12 04:04:19;;;;;;;49.38;28.75;;;0.70;1.00;;;;;;5109711;28;20507;-88
2021/01/12 04:06:45;;;;;;;49.20;29.23;;;0.70;1.00;;;;;;5114129;28;20529;-89
2021/01/12 04:09:11;;;;;;;48.25;29.48;;;0.70;1.00;;;;;;5113622;28;20023;-89
2021/01/12 04:11:37;;;;;;;44.97;27.55;;;1.10;1.00;;;;;;5113455;28;20034;-89
2021/01/12 04:14:03;;;;;;;50.17;29.98;;;1.30;1.00;;;;;;5113897;28;20138;-89
2021/01/12 04:16:29;;;;;;;46.50;28.58;;;0.70;1.00;;;;;;5115104;28;20034;-88
2021/01/12 04:18:55;;;;;;;50.60;29.13;;;0.80;1.00;;;;;;5112073;28;20438;-89
2021/01/12 04:21:21;;;;;;;49.40;29.52;;;0.60;1.00;;;;;;5110469;28;20388;-89
2021/01/12 04:23:46;;;;;;;50.25;29.92;;;0.80;1.00;;;;;;5099168;28;20015;-89
2021/01/12 04:26:12;;;;;;;50.67;29.08;;;1.10;1.00;;;;;;5113765;28;20016;-89
2021/01/12 04:28:37;;;;;;;49.80;28.67;;;0.70;1.00;;;;;;5095599;28;20399;-89
2021/01/12 04:31:03;;;;;;;46.70;27.63;;;0.50;1.00;;;;;;5093063;28;20057;-88
2021/01/12 04:33:29;;;;;;;46.58;28.40;;;0.60;1.00;;;;;;5106937;28;20066;-88
2021/01/12 04:35:54;;;;;;;49.90;28.83;;;0.70;1.00;;;;;;5113724;28;20028;-89
2021/01/12 04:38:20;;;;;;;47.42;28.80;;;0.90;1.00;;;;;;5113052;28;20105;-89
2021/01/12 04:40:46;;;;;;;55.13;31.35;;;0.80;1.00;;;;;;5113208;28;20028;-88
2021/01/12 04:43:12;;;;;;;52.33;30.60;;;0.70;1.00;;;;;;5113315;28;20024;-88
2021/01/12 04:45:38;;;;;;;46.50;28.23;;;0.70;1.00;;;;;;5111166;28;20027;-88
2021/01/12 04:48:05;;;;;;;49.42;29.80;;;0.70;1.00;;;;;;5092738;28;20055;-88
2021/01/12 04:50:31;;;;;;;52.30;29.38;;;0.70;1.00;;;;;;5092949;28;20024;-89
2021/01/12 04:52:56;;;;;;;51.20;29.92;;;0.80;1.00;;;;;;5092598;28;20020;-88
2021/01/12 04:55:22;;;;;;;47.42;29.38;;;0.80;1.00;;;;;;5092669;28;20169;-89
2021/01/12 04:57:49;;;;;;;49.40;28.38;;;1.00;1.00;;;;;;5093749;28;20074;-89
2021/01/12 05:00:23;;;;;;;45.83;29.42;;;1.30;1.00;;;;;;5093514;28;20028;-88
2021/01/12 05:03:02;;;;;;;52.38;29.92;;;0.90;1.00;;;;;;5109375;28;20026;-89
2021/01/12 05:05:29;;;;;;;49.70;29.52;;;0.90;1.00;;;;;;5094006;28;20024;-89
2021/01/12 05:07:59;;;;;;;50.03;28.98;;;0.90;1.00;;;;;;5093533;28;20028;-89
2021/01/12 05:10:25;;;;;;;50.30;29.90;;;0.90;1.00;;;;;;5104666;28;20007;-89
2021/01/12 05:12:51;;;;;;;50.35;29.77;;;0.90;1.00;;;;;;5114181;28;20433;-89
2021/01/12 05:15:19;;;;;;;52.05;30.63;;;1.00;1.00;;;;;;5095168;28;20516;-89
2021/01/12 05:17:48;;;;;;;51.53;31.02;;;0.90;1.00;;;;;;5098653;28;20050;-89
2021/01/12 05:20:24;;;;;;;54.88;32.08;;;1.30;1.00;;;;;;5091735;28;20028;-88
2021/01/12 05:23:08;;;;;;;48.08;29.45;;;0.80;1.00;;;;;;5092567;28;20050;-88
2021/01/12 05:25:39;;;;;;;49.90;29.33;;;0.90;1.00;;;;;;5096707;28;20589;-89
2021/01/12 05:28:11;;;;;;;49.75;30.15;;;1.00;1.00;;;;;;5111827;28;20546;-89
2021/01/12 05:30:38;;;;;;;55.38;32.35;;;1.10;1.00;;;;;;5102149;28;20046;-89
2021/01/12 05:33:04;;;;;;;53.42;31.35;;;1.10;1.00;;;;;;5105342;28;20019;-88
2021/01/12 05:35:36;;;;;;;58.05;33.08;;;1.00;1.00;;;;;;5092988;28;20052;-89
2021/01/12 05:38:07;;;;;;;55.53;31.63;;;1.00;1.00;;;;;;5092872;28;20044;-89
2021/01/12 05:40:40;;;;;;;54.47;32.03;;;1.40;1.00;;;;;;5107565;28;20034;-89
2021/01/12 05:43:13;;;;;;;49.80;30.08;;;1.00;1.00;;;;;;5125422;28;20089;-89
2021/01/12 05:45:43;;;;;;;52.40;31.17;;;1.60;1.00;;;;;;5092308;28;20033;-88
2021/01/12 05:48:12;;;;;;;51.58;30.70;;;1.10;1.00;;;;;;5089786;28;20028;-89
2021/01/12 05:50:38;;;;;;;50.53;30.33;;;0.90;1.00;;;;;;5091891;28;20028;-89
2021/01/12 05:53:13;;;;;;;51.22;29.48;;;1.00;1.00;;;;;;5092052;28;20024;-89
2021/01/12 05:55:41;;;;;;;51.75;29.70;;;1.00;1.00;;;;;;5092075;28;20048;-89
2021/01/12 05:58:18;;;;;;;51.88;30.52;;;1.10;1.00;;;;;;5091651;28;20134;-89
2021/01/12 06:00:46;;;;;;;51.50;29.80;;;1.00;1.00;;;;;;5099324;28;20118;-89
2021/01/12 06:03:17;;;;;;;51.75;30.38;;;1.00;1.00;;;;;;5091400;28;20020;-88
2021/01/12 06:05:46;;;;;;;51.30;30.45;;;1.30;1.00;;;;;;5106423;28;20100;-89
2021/01/12 06:08:16;;;;;;;50.10;29.55;;;1.10;1.00;;;;;;5095138;28;20452;-91
2021/01/12 06:10:45;;;;;;;51.80;30.48;;;1.00;1.00;;;;;;5110178;28;20024;-91
2021/01/12 06:13:20;;;;;;;51.05;29.70;;;1.10;1.00;;;;;;5111137;28;20551;-87
2021/01/12 06:15:47;;;;;;;49.35;30.63;;;1.10;1.00;;;;;;5113471;28;20023;-86
2021/01/12 06:18:17;;;;;;;50.80;30.55;;;1.20;1.00;;;;;;5112666;28;20016;-87
2021/01/12 06:20:55;;;;;;;48.67;29.95;;;1.20;1.00;;;;;;5114767;28;20027;-86
2021/01/12 06:23:34;;;;;;;49.90;29.95;;;1.20;1.00;;;;;;5111684;27;20077;-87
2021/01/12 06:26:04;;;;;;;45.53;27.45;;;1.10;1.00;;;;;;5095868;28;20016;-88
2021/01/12 06:28:30;;;;;;;50.67;29.98;;;1.20;1.00;;;;;;5097968;28;20024;-87
2021/01/12 06:30:57;;;;;;;49.80;28.38;;;1.20;1.00;;;;;;5112392;28;20019;-87
2021/01/12 06:33:22;;;;;;;50.03;30.70;;;1.10;1.00;;;;;;5116047;28;20095;-87
2021/01/12 06:35:51;;;;;;;46.78;28.75;;;1.00;1.00;;;;;;5114980;28;20142;-89
2021/01/12 06:38:23;;;;;;;49.25;30.50;;;1.20;1.00;;;;;;5114952;28;20047;-90
2021/01/12 06:40:54;;;;;;;50.17;29.83;;;1.30;1.00;;;;;;5115636;28;20027;-89
2021/01/12 06:43:24;;;;;;;47.55;28.65;;;1.60;1.00;;;;;;5115403;28;20100;-89
2021/01/12 06:45:52;;;;;;;52.28;30.13;;;1.20;1.00;;;;;;5109523;28;20032;-89
2021/01/12 06:48:18;;;;;;;49.35;28.88;;;1.10;1.00;;;;;;5115213;28;20115;-90
2021/01/12 06:50:46;;;;;;;48.35;29.65;;;1.20;1.00;;;;;;5115000;28;20028;-92
2021/01/12 06:53:15;;;;;;;49.05;29.70;;;1.20;1.00;;;;;;5115703;28;20019;-89
2021/01/12 06:55:41;;;;;;;52.60;31.27;;;1.10;1.00;;;;;;5115573;28;20020;-89
2021/01/12 06:58:11;;;;;;;49.83;29.63;;;1.40;1.00;;;;;;5116697;28;20023;-87
2021/01/12 07:00:37;;;;;;;49.35;30.27;;;1.10;1.00;;;;;;5112863;28;20027;-89
2021/01/12 07:03:04;;;;;;;49.42;28.63;;;1.20;1.00;;;;;;5114982;28;20024;-87
2021/01/12 07:05:38;;;;;;;54.80;29.75;;;1.20;1.00;;;;;;5115992;28;20210;-88
2021/01/12 07:08:08;;;;;;;50.63;30.02;;;1.20;1.00;;;;;;5114773;28;20030;-90
2021/01/12 07:10:42;;;;;;;52.15;29.88;;;1.20;1.00;;;;;;5115398;28;20377;-90
2021/01/12 07:13:08;;;;;;;48.95;28.67;;;1.20;1.00;;;;;;5115025;28;20499;-90
2021/01/12 07:15:41;;;;;;;48.17;29.52;;;1.40;1.00;;;;;;5106142;28;20024;-89
2021/01/12 07:18:08;;;;;;;46.03;27.63;;;1.30;1.00;;;;;;5095430;28;20028;-88
2021/01/12 07:20:37;;;;;;;51.53;28.35;;;1.20;1.00;;;;;;5094048;28;20122;-89
2021/01/12 07:23:11;;;;;;;51.05;29.55;;;1.20;1.00;;;;;;5095539;28;20020;-88
2021/01/12 07:25:39;;;;;;;50.83;29.00;;;1.20;1.00;;;;;;5093739;28;20032;-88
2021/01/12 07:28:14;;;;;;;49.28;30.15;;;1.20;1.00;;;;;;5093986;28;20043;-88
2021/01/12 07:30:49;;;;;;;52.92;32.65;;;1.90;1.00;;;;;;5095025;28;20024;-88
2021/01/12 07:33:21;;;;;;;47.60;29.13;;;1.90;1.00;;;;;;5110982;28;20653;-89
2021/01/12 07:35:54;;;;;;;76.57;42.83;;;1.50;1.00;;;;;;5115436;28;20043;-87
2021/01/12 07:38:22;;;;;;;48.80;29.98;;;1.50;1.00;;;;;;5114444;28;20043;-88
2021/01/12 07:40:49;;;;;;;48.95;29.13;;;1.60;1.00;;;;;;5114267;28;20032;-88
2021/01/12 07:43:19;;;;;;;49.38;29.77;;;2.20;1.00;;;;;;5114103;28;20028;-88
2021/01/12 07:45:47;;;;;;;47.17;28.50;;;1.70;1.00;;;;;;5107361;28;20024;-89
2021/01/12 07:48:13;;;;;;;52.58;29.98;;;1.80;1.00;;;;;;5101054;28;20103;-88
2021/01/12 07:50:42;;;;;;;51.35;29.80;;;1.80;1.00;;;;;;5093660;28;20389;-88
2021/01/12 07:53:08;;;;;;;46.85;28.63;;;1.80;1.00;;;;;;5102109;28;20484;-88
2021/01/12 07:55:42;;;;;;;48.15;29.30;;;2.30;1.00;;;;;;5115262;28;20039;-88
2021/01/12 07:58:09;;;;;;;52.10;30.38;;;1.80;1.00;;;;;;5115372;28;20484;-88
2021/01/12 08:00:35;;;;;;;52.78;30.88;;;2.40;1.00;;;;;;5110406;28;20464;-88
2021/01/12 08:03:01;;;;;;;53.33;30.90;;;2.50;1.00;;;;;;5106790;28;20080;-88
2021/01/12 08:05:27;;;;;;;56.67;32.72;;;2.40;1.00;;;;;;5093674;28;20492;-88
2021/01/12 08:08:24;;;;;;;53.50;32.03;;;1.90;1.00;;;;;;5093238;28;20070;-88
2021/01/12 08:10:50;;;;;;;51.40;31.77;;;2.50;1.00;;;;;;5092086;28;20519;-88
2021/01/12 08:13:16;;;;;;;50.92;30.92;;;2.20;1.00;;;;;;5092487;28;20374;-88
2021/01/12 08:15:45;;;;;;;54.20;31.02;;;1.90;1.00;;;;;;5100179;28;20028;-89
2021/01/12 08:18:13;;;;;;;56.15;32.72;;;2.40;1.00;;;;;;5093313;28;20073;-89
2021/01/12 08:20:39;;;;;;;55.67;31.98;;;1.90;1.00;;;;;;5094456;28;20055;-89
2021/01/12 08:23:05;;;;;;;65.50;34.47;;;2.30;1.00;;;;;;5094430;28;20460;-86
2021/01/12 08:25:33;;;;;;;56.67;32.70;;;1.90;1.00;;;;;;5093180;28;20024;-88
2021/01/12 08:28:00;;;;;;;54.42;33.13;;;2.40;1.00;;;;;;5094451;28;20028;-92
2021/01/12 08:30:28;;;;;;;51.95;30.23;;;2.60;1.00;;;;;;5094613;28;20366;-87
2021/01/12 08:33:22;;;;;;;51.60;29.75;;;2.20;1.00;;;;;;5092779;28;20024;-88
2021/01/12 08:35:54;;;;;;;58.28;31.90;;;2.20;1.00;;;;;;5088123;28;20028;-89
2021/01/12 08:38:24;;;;;;;53.35;31.33;;;2.60;1.00;;;;;;5093927;28;20047;-89
2021/01/12 08:40:51;;;;;;;54.60;31.15;;;2.30;1.00;;;;;;5092384;28;20038;-88
2021/01/12 08:43:21;;;;;;;54.58;33.17;;;2.30;1.00;;;;;;5095582;28;20106;-89
2021/01/12 08:45:47;;;;;;;52.75;31.13;;;2.50;1.00;;;;;;5093773;28;20085;-91
2021/01/12 08:48:15;;;;;;;52.33;30.75;;;2.80;1.00;;;;;;5092805;28;20019;-91
2021/01/12 08:50:42;;;;;;;55.65;30.65;;;2.60;1.00;;;;;;5093372;28;20036;-91
2021/01/12 08:53:08;;;;;;;50.00;29.70;;;3.10;1.00;;;;;;5093020;28;20017;-90
2021/01/12 08:55:34;;;;;;;49.65;30.60;;;2.80;1.00;;;;;;5092696;28;20028;-89
2021/01/12 08:58:02;;;;;;;50.80;30.38;;;3.10;1.00;;;;;;5091576;28;20027;-89
2021/01/12 09:00:35;;;;;;;48.17;29.73;;;3.20;1.00;;;;;;5093457;28;20036;-90
2021/01/12 09:03:01;;;;;;;53.17;30.70;;;2.80;1.00;;;;;;5092954;28;20052;-88
2021/01/12 09:05:31;;;;;;;51.25;30.63;;;3.10;1.00;;;;;;5092375;28;20062;-89
2021/01/12 09:08:16;;;;;;;51.53;31.08;;;2.90;1.00;;;;;;5093508;28;20389;-88
2021/01/12 09:10:42;;;;;;;51.10;31.23;;;2.90;1.00;;;;;;5092424;28;20070;-88
2021/01/12 09:13:08;;;;;;;53.28;31.60;;;3.00;1.00;;;;;;5091919;28;20031;-89
2021/01/12 09:15:35;;;;;;;50.88;31.17;;;2.80;1.00;;;;;;5095173;28;20441;-88
2021/01/12 09:18:06;;;;;;;54.88;32.75;;;2.80;1.00;;;;;;5096486;28;20506;-88
2021/01/12 09:20:38;;;;;;;54.25;31.92;;;2.80;1.00;;;;;;5091676;28;20481;-88
2021/01/12 09:23:06;;;;;;;55.00;32.70;;;2.80;1.00;;;;;;5091526;28;20030;-88
2021/01/12 09:25:32;;;;;;;60.35;35.40;;;3.30;1.00;;;;;;5091939;28;20024;-88
2021/01/12 09:28:13;;;;;;;62.33;35.97;;;2.60;1.00;;;;;;5096333;28;20380;-88
2021/01/12 09:30:40;;;;;;;64.28;36.10;;;2.60;1.00;;;;;;5111680;28;20561;-88
2021/01/12 09:33:05;;;;;;;64.40;38.22;;;2.90;1.00;;;;;;5097155;28;20397;-89
2021/01/12 09:35:31;;;;;;;65.68;37.72;;;2.60;1.00;;;;;;5092083;28;20031;-89
2021/01/12 09:37:58;;;;;;;63.78;38.35;;;3.00;1.00;;;;;;5108039;28;20047;-88
2021/01/12 09:40:25;;;;;;;66.72;37.72;;;2.70;1.00;;;;;;5111702;28;20035;-87
2021/01/12 09:42:50;;;;;;;64.43;38.40;;;2.70;1.00;;;;;;5105354;28;20108;-87
2021/01/12 09:45:16;;;;;;;68.97;39.17;;;2.70;1.00;;;;;;5108967;28;20256;-87
2021/01/12 09:47:42;;;;;;;67.80;40.40;;;3.10;1.00;;;;;;5094901;28;20028;-87
2021/01/12 09:50:08;;;;;;;60.35;37.75;;;3.00;1.00;;;;;;5094980;28;20024;-88
2021/01/12 09:52:33;;;;;;;56.22;33.65;;;2.90;1.00;;;;;;5095636;28;20062;-86
2021/01/12 09:54:59;;;;;;;62.08;35.53;;;2.90;1.00;;;;;;5095768;28;20028;-87
2021/01/12 09:57:24;;;;;;;62.03;34.92;;;2.70;1.00;;;;;;5096521;28;20543;-87
2021/01/12 09:59:50;;;;;;;56.83;33.92;;;2.70;1.00;;;;;;5095278;28;20101;-87
2021/01/12 10:02:16;;;;;;;58.83;32.90;;;2.70;1.00;;;;;;5106331;28;20024;-88
2021/01/12 10:04:41;;;;;;;59.60;34.05;;;2.90;1.00;;;;;;5116217;28;20073;-86
2021/01/12 10:07:07;;;;;;;60.38;35.92;;;3.20;1.00;;;;;;5117072;28;20027;-86
2021/01/12 10:09:32;;;;;;;59.30;36.13;;;3.30;1.00;;;;;;5115856;28;20027;-87
2021/01/12 10:11:58;;;;;;;59.00;34.22;;;3.40;1.00;;;;;;5116612;28;20391;-87
2021/01/12 10:14:24;;;;;;;54.47;33.40;;;3.50;1.00;;;;;;5101973;28;20443;-86
2021/01/12 10:16:50;;;;;;;54.63;33.22;;;3.70;1.00;;;;;;5097446;28;20036;-88
2021/01/12 10:19:16;;;;;;;50.88;31.15;;;3.80;1.00;;;;;;5096288;28;20110;-87
2021/01/12 10:21:42;;;;;;;56.97;32.70;;;3.80;1.00;;;;;;5114797;28;20557;-90
2021/01/12 10:24:08;;;;;;;55.05;34.50;;;3.70;1.00;;;;;;5115721;28;20097;-89
2021/01/12 10:26:34;;;;;;;57.15;34.70;;;3.80;1.00;;;;;;5115465;28;20023;-89
2021/01/12 10:29:00;;;;;;;55.38;34.00;;;4.00;1.00;;;;;;5115487;28;20058;-88
2021/01/12 10:31:26;;;;;;;57.33;33.65;;;4.40;1.00;;;;;;5100881;28;20027;-89
2021/01/12 10:33:52;;;;;;;53.17;32.78;;;5.20;1.00;;;;;;5102195;28;20020;-85
2021/01/12 10:36:20;;;;;;;52.78;32.25;;;4.90;1.00;;;;;;5116266;28;20031;-85
2021/01/12 10:38:46;;;;;;;55.17;33.72;;;4.80;1.00;;;;;;5109839;28;20113;-85
2021/01/12 10:41:13;;;;;;;51.60;32.70;;;4.40;1.00;;;;;;5109464;28;20030;-85
2021/01/12 10:43:39;;;;;;;51.78;31.80;;;4.30;1.00;;;;;;5112807;28;20137;-84
2021/01/12 10:46:05;;;;;;;55.92;33.97;;;4.20;1.00;;;;;;5107074;28;20485;-84
2021/01/12 10:48:31;;;;;;;47.78;30.88;;;4.20;1.00;;;;;;5109109;28;20031;-84
2021/01/12 10:50:57;;;;;;;55.20;32.80;;;4.20;1.00;;;;;;5104991;28;20024;-84
2021/01/12 10:53:22;;;;;;;56.28;33.53;;;4.10;1.00;;;;;;5109606;28;20027;-85
2021/01/12 10:55:50;;;;;;;52.17;31.48;;;4.20;1.00;;;;;;5103319;28;20073;-87
2021/01/12 10:58:16;;;;;;;54.72;33.08;;;4.00;1.00;;;;;;5108665;28;20034;-86
2021/01/12 11:00:42;;;;;;;54.03;33.17;;;4.10;1.00;;;;;;5096453;28;20390;-87
2021/01/12 11:03:08;;;;;;;51.97;31.15;;;4.20;1.00;;;;;;5102066;28;20052;-85
2021/01/12 11:05:34;;;;;;;51.83;32.80;;;4.10;1.00;;;;;;5109540;28;20124;-85
2021/01/12 11:08:01;;;;;;;49.75;31.20;;;4.20;1.00;;;;;;5099472;28;20023;-82
2021/01/12 11:10:27;;;;;;;53.40;33.03;;;4.20;1.00;;;;;;5101540;28;20592;-83
2021/01/12 11:12:53;;;;;;;48.60;30.02;;;4.30;1.00;;;;;;5098337;28;20024;-83
2021/01/12 11:15:19;;;;;;;48.92;30.05;;;4.30;1.00;;;;;;5101753;28;20027;-84
2021/01/12 11:17:45;;;;;;;45.53;29.13;;;4.50;1.00;;;;;;5101954;28;20019;-83
2021/01/12 11:20:13;;;;;;;47.38;29.05;;;4.40;1.00;;;;;;5112327;28;20031;-83
2021/01/12 11:22:39;;;;;;;48.03;29.52;;;4.10;1.00;;;;;;5099790;28;20370;-83
2021/01/12 11:25:05;;;;;;;48.30;29.40;;;4.60;1.00;;;;;;5094832;28;20016;-86
2021/01/12 11:27:32;;;;;;;45.05;27.80;;;5.00;1.00;;;;;;5094150;28;20039;-82
2021/01/12 11:29:58;;;;;;;44.67;28.15;;;5.00;1.00;;;;;;5094854;28;20008;-82
2021/01/12 11:32:25;;;;;;;44.03;27.25;;;4.80;1.00;;;;;;5098037;28;20032;-81
2021/01/12 11:34:51;;;;;;;47.28;27.13;;;4.60;1.00;;;;;;5115501;28;20069;-82
2021/01/12 11:37:16;;;;;;;44.17;26.88;;;4.60;1.00;;;;;;5110268;28;20471;-83
2021/01/12 11:39:42;;;;;;;46.08;27.48;;;4.70;1.00;;;;;;5108765;28;20027;-86
2021/01/12 11:42:10;;;;;;;42.90;26.60;;;4.60;1.00;;;;;;5097733;28;20062;-87
2021/01/12 11:44:36;;;;;;;50.38;29.40;;;4.30;1.00;;;;;;5094789;28;20024;-88
2021/01/12 11:47:02;;;;;;;49.53;28.45;;;4.10;1.00;;;;;;5094949;28;20046;-86
2021/01/12 11:49:28;;;;;;;46.78;28.08;;;4.00;1.00;;;;;;5095396;28;20024;-88
2021/01/12 11:51:53;;;;;;;45.78;28.75;;;4.00;1.00;;;;;;5095004;28;20028;-88
2021/01/12 11:54:19;;;;;;;46.58;28.27;;;4.20;1.00;;;;;;5113821;28;20495;-85
2021/01/12 11:56:55;;;;;;;44.15;28.00;;;4.80;1.00;;;;;;5096562;28;20020;-85
2021/01/12 11:59:24;;;;;;;46.83;28.45;;;4.40;1.00;;;;;;5113400;28;20055;-87
2021/01/12 12:01:50;;;;;;;45.35;28.00;;;4.70;1.00;;;;;;5108142;28;20073;-85
2021/01/12 12:04:16;;;;;;;46.38;29.13;;;4.20;1.00;;;;;;5092888;28;20032;-84
2021/01/12 12:07:02;;;;;;;47.95;29.05;;;4.20;1.00;;;;;;5092546;28;20069;-84
2021/01/12 12:09:30;;;;;;;49.35;29.15;;;4.40;1.00;;;;;;5093940;28;20072;-85
2021/01/12 12:11:56;;;;;;;49.83;29.63;;;4.00;1.00;;;;;;5092949;28;20073;-82
2021/01/12 12:14:23;;;;;;;46.45;29.25;;;4.00;1.00;;;;;;5094113;28;20026;-83
2021/01/12 12:16:49;;;;;;;49.35;27.95;;;4.10;1.00;;;;;;5093849;28;20024;-82
2021/01/12 12:19:17;;;;;;;52.67;29.92;;;4.10;1.00;;;;;;5111343;28;20515;-85
2021/01/12 12:21:48;;;;;;;51.53;29.35;;;4.20;1.00;;;;;;5114008;28;20028;-86
2021/01/12 12:24:18;;;;;;;45.10;28.20;;;4.50;1.00;;;;;;5114376;28;20034;-85
2021/01/12 12:26:48;;;;;;;47.53;29.23;;;4.30;1.00;;;;;;5110611;27;20431;-85
2021/01/12 12:29:14;;;;;;;43.83;27.48;;;4.50;1.00;;;;;;5112635;28;20031;-84
2021/01/12 12:31:39;;;;;;;42.33;26.95;;;4.50;1.00;;;;;;5110242;28;20022;-84
2021/01/12 12:34:06;;;;;;;43.95;26.42;;;4.50;1.00;;;;;;5092018;28;20073;-84
2021/01/12 12:36:39;;;;;;;44.90;26.95;;;4.70;1.00;;;;;;5093370;28;20020;-84
2021/01/12 12:39:05;;;;;;;41.97;25.88;;;4.80;1.00;;;;;;5092003;28;20070;-84
2021/01/12 12:41:32;;;;;;;42.97;27.75;;;4.90;1.00;;;;;;5094744;28;20028;-83
2021/01/12 12:43:59;;;;;;;43.08;25.35;;;5.30;1.00;;;;;;5093523;28;20078;-84
2021/01/12 12:46:25;;;;;;;44.20;27.15;;;4.90;1.00;;;;;;5092241;28;20435;-85
2021/01/12 12:48:51;;;;;;;43.67;27.33;;;4.80;1.00;;;;;;5093414;28;20027;-84
2021/01/12 12:51:17;;;;;;;49.25;28.20;;;4.80;1.00;;;;;;5092657;28;20020;-85
2021/01/12 12:53:45;;;;;;;47.60;27.42;;;4.60;1.00;;;;;;5093275;28;20017;-86
2021/01/12 12:56:12;;;;;;;44.15;27.73;;;4.70;1.00;;;;;;5111034;28;20370;-84
2021/01/12 12:58:38;;;;;;;45.53;27.73;;;5.00;1.00;;;;;;5113361;28;20028;-85
2021/01/12 13:01:04;;;;;;;46.10;29.05;;;4.60;1.00;;;;;;5102343;28;20031;-85
2021/01/12 13:03:30;;;;;;;46.65;28.42;;;4.50;1.00;;;;;;5091965;28;20024;-85
2021/01/12 13:06:00;;;;;;;45.72;27.95;;;4.60;1.00;;;;;;5092802;28;20031;-85
2021/01/12 13:08:27;;;;;;;47.15;29.10;;;4.60;1.00;;;;;;5093206;28;20035;-85
2021/01/12 13:10:52;;;;;;;47.83;29.20;;;4.60;1.00;;;;;;5091502;28;20110;-85
2021/01/12 13:13:18;;;;;;;48.47;28.85;;;4.60;1.00;;;;;;5091537;28;20165;-85
2021/01/12 13:15:45;;;;;;;45.85;28.33;;;4.50;1.00;;;;;;5093162;28;20020;-85